createdAt,value
2018-11-02T00:00:26.193Z,1008.60
2018-11-02T00:01:26.078Z,1008.58
2018-11-02T00:02:26.028Z,1008.60
2018-11-02T00:03:25.985Z,1008.65
2018-11-02T00:04:25.938Z,1008.66
2018-11-02T00:05:25.898Z,1008.69
2018-11-02T00:06:25.990Z,1008.73
2018-11-02T00:07:25.802Z,1008.69
2018-11-02T00:08:25.750Z,1008.69
2018-11-02T00:09:25.708Z,1008.69
2018-11-02T00:10:25.659Z,1008.72
2018-11-02T00:11:25.618Z,1008.73
2018-11-02T00:12:25.592Z,1008.73
2018-11-02T00:13:25.529Z,1008.77
2018-11-02T00:14:25.473Z,1008.82
2018-11-02T00:15:25.426Z,1008.79
2018-11-02T00:16:25.382Z,1008.88
2018-11-02T00:17:25.340Z,1008.88
2018-11-02T00:18:25.293Z,1008.82
2018-11-02T00:19:25.245Z,1008.89
2018-11-02T00:20:25.206Z,1008.89
2018-11-02T00:21:25.151Z,1008.89
2018-11-02T00:22:25.126Z,1008.92
2018-11-02T00:23:25.071Z,1008.93
2018-11-02T00:24:25.015Z,1008.94
2018-11-02T00:25:24.967Z,1008.98
2018-11-02T00:26:24.918Z,1008.94
2018-11-02T00:27:24.883Z,1009.03
2018-11-02T00:28:24.846Z,1009.02
2018-11-02T00:29:24.781Z,1009.06
2018-11-02T00:30:24.741Z,1009.05
2018-11-02T00:31:24.690Z,1009.05
2018-11-02T00:32:24.643Z,1009.03
2018-11-02T00:33:24.598Z,1009.06
2018-11-02T00:34:24.550Z,1009.08
2018-11-02T00:35:24.516Z,1009.06
2018-11-02T00:36:24.463Z,1009.11
2018-11-02T00:37:24.416Z,1009.09
2018-11-02T00:38:24.388Z,1009.08
2018-11-02T00:39:24.324Z,1009.12
2018-11-02T00:40:24.280Z,1009.06
2018-11-02T00:41:24.229Z,1009.13
2018-11-02T00:42:24.186Z,1009.13
2018-11-02T00:43:24.135Z,1009.14
2018-11-02T00:44:24.093Z,1009.09
2018-11-02T00:45:24.047Z,1009.11
2018-11-02T00:46:24.004Z,1009.14
2018-11-02T00:47:23.957Z,1009.12
2018-11-02T00:48:23.903Z,1009.10
2018-11-02T00:49:23.869Z,1009.12
2018-11-02T00:50:23.815Z,1009.08
2018-11-02T00:51:23.772Z,1009.11
2018-11-02T00:52:23.721Z,1009.08
2018-11-02T00:53:23.680Z,1009.10
2018-11-02T00:54:23.684Z,1009.10
2018-11-02T00:55:23.584Z,1009.07
2018-11-02T00:56:23.535Z,1009.11
2018-11-02T00:57:23.494Z,1009.08
2018-11-02T00:58:23.444Z,1009.10
2018-11-02T00:59:23.430Z,1008.99
2018-11-02T01:00:23.358Z,1009.03
2018-11-02T01:01:23.307Z,1009.01
2018-11-02T01:02:23.258Z,1009.02
2018-11-02T01:03:23.221Z,1008.97
2018-11-02T01:04:23.169Z,1008.96
2018-11-02T01:05:23.125Z,1008.98
2018-11-02T01:06:23.078Z,1008.99
2018-11-02T01:07:23.037Z,1009.03
2018-11-02T01:08:22.988Z,1009.06
2018-11-02T01:09:22.947Z,1009.16
2018-11-02T01:10:22.891Z,1009.21
2018-11-02T01:11:22.851Z,1009.22
2018-11-02T01:12:22.799Z,1009.26
2018-11-02T01:13:22.757Z,1009.32
2018-11-02T01:14:22.710Z,1009.32
2018-11-02T01:15:22.661Z,1009.27
2018-11-02T01:16:22.676Z,1009.33
2018-11-02T01:17:22.614Z,1009.37
2018-11-02T01:18:22.612Z,1009.38
2018-11-02T01:19:22.485Z,1009.43
2018-11-02T01:20:22.431Z,1009.47
2018-11-02T01:21:22.382Z,1009.51
2018-11-02T01:22:22.338Z,1009.55
2018-11-02T01:23:22.292Z,1009.47
2018-11-02T01:24:22.243Z,1009.55
2018-11-02T01:25:22.199Z,1009.54
2018-11-02T01:26:22.156Z,1009.59
2018-11-02T01:27:22.117Z,1009.60
2018-11-02T01:28:22.058Z,1009.63
2018-11-02T01:29:22.013Z,1009.67
2018-11-02T01:30:21.969Z,1009.61
2018-11-02T01:31:21.921Z,1009.65
2018-11-02T01:32:21.884Z,1009.65
2018-11-02T01:33:21.827Z,1009.67
2018-11-02T01:34:21.784Z,1009.62
2018-11-02T01:35:21.737Z,1009.64
2018-11-02T01:36:21.690Z,1009.67
2018-11-02T01:37:21.650Z,1009.66
2018-11-02T01:38:21.598Z,1009.71
2018-11-02T01:39:21.554Z,1009.69
2018-11-02T01:40:21.505Z,1009.73
2018-11-02T01:41:21.465Z,1009.76
2018-11-02T01:42:21.415Z,1009.65
2018-11-02T01:43:21.377Z,1009.77
2018-11-02T01:44:21.322Z,1009.72
2018-11-02T01:45:21.275Z,1009.73
2018-11-02T01:46:21.231Z,1009.75
2018-11-02T01:47:21.187Z,1009.75
2018-11-02T01:48:21.137Z,1009.76
2018-11-02T01:49:21.094Z,1009.73
2018-11-02T01:50:21.050Z,1009.75
2018-11-02T01:51:21.000Z,1009.75
2018-11-02T01:52:20.969Z,1009.78
2018-11-02T01:53:20.911Z,1009.76
2018-11-02T01:54:20.860Z,1009.74
2018-11-02T01:55:20.818Z,1009.82
2018-11-02T01:56:20.770Z,1009.87
2018-11-02T01:57:20.736Z,1009.84
2018-11-02T01:58:20.687Z,1009.86
2018-11-02T01:59:20.639Z,1009.82
2018-11-02T02:00:20.607Z,1009.79
2018-11-02T02:01:20.541Z,1009.85
2018-11-02T02:02:20.493Z,1009.82
2018-11-02T02:03:20.453Z,1009.78
2018-11-02T02:04:20.398Z,1009.79
2018-11-02T02:05:20.359Z,1009.76
2018-11-02T02:06:20.311Z,1009.75
2018-11-02T02:07:20.261Z,1009.80
2018-11-02T02:08:20.220Z,1009.81
2018-11-02T02:09:20.174Z,1009.87
2018-11-02T02:10:20.126Z,1009.90
2018-11-02T02:11:20.080Z,1009.86
2018-11-02T02:12:20.035Z,1009.90
2018-11-02T02:13:20.101Z,1009.93
2018-11-02T02:14:19.940Z,1009.92
2018-11-02T02:15:19.971Z,1009.95
2018-11-02T02:16:19.856Z,1009.99
2018-11-02T02:17:19.800Z,1010.00
2018-11-02T02:18:19.794Z,1009.98
2018-11-02T02:19:19.713Z,1010.03
2018-11-02T02:20:19.663Z,1010.03
2018-11-02T02:21:19.627Z,1010.10
2018-11-02T02:22:19.570Z,1010.07
2018-11-02T02:23:19.529Z,1010.07
2018-11-02T02:24:19.485Z,1010.21
2018-11-02T02:25:19.435Z,1010.19
2018-11-02T02:26:19.385Z,1010.14
2018-11-02T02:27:19.339Z,1010.25
2018-11-02T02:28:19.295Z,1010.24
2018-11-02T02:29:19.323Z,1010.27
2018-11-02T02:30:19.379Z,1010.27
2018-11-02T02:31:19.161Z,1010.26
2018-11-02T02:32:19.112Z,1010.24
2018-11-02T02:33:19.062Z,1010.28
2018-11-02T02:34:19.024Z,1010.28
2018-11-02T02:35:18.972Z,1010.31
2018-11-02T02:36:18.932Z,1010.32
2018-11-02T02:37:18.973Z,1010.31
2018-11-02T02:38:18.837Z,1010.37
2018-11-02T02:39:18.796Z,1010.35
2018-11-02T02:40:18.739Z,1010.36
2018-11-02T02:41:18.701Z,1010.37
2018-11-02T02:42:18.657Z,1010.38
2018-11-02T02:43:18.606Z,1010.40
2018-11-02T02:44:18.558Z,1010.42
2018-11-02T02:45:18.510Z,1010.46
2018-11-02T02:46:18.463Z,1010.41
2018-11-02T02:47:18.432Z,1010.44
2018-11-02T02:48:18.386Z,1010.40
2018-11-02T02:49:18.367Z,1010.40
2018-11-02T02:50:18.286Z,1010.36
2018-11-02T02:51:18.240Z,1010.41
2018-11-02T02:52:18.202Z,1010.41
2018-11-02T02:53:18.148Z,1010.42
2018-11-02T02:54:18.096Z,1010.45
2018-11-02T02:55:18.056Z,1010.42
2018-11-02T02:56:18.040Z,1010.47
2018-11-02T02:57:17.962Z,1010.49
2018-11-02T02:58:17.911Z,1010.51
2018-11-02T02:59:17.867Z,1010.54
2018-11-02T03:00:17.823Z,1010.54
2018-11-02T03:01:17.796Z,1010.56
2018-11-02T03:02:17.828Z,1010.62
2018-11-02T03:03:17.798Z,1010.61
2018-11-02T03:04:17.640Z,1010.62
2018-11-02T03:05:17.590Z,1010.64
2018-11-02T03:06:17.546Z,1010.69
2018-11-02T03:07:17.498Z,1010.74
2018-11-02T03:08:17.511Z,1010.73
2018-11-02T03:09:17.403Z,1010.76
2018-11-02T03:10:17.443Z,1010.80
2018-11-02T03:11:17.417Z,1010.80
2018-11-02T03:12:17.269Z,1010.82
2018-11-02T03:13:17.223Z,1010.85
2018-11-02T03:14:17.175Z,1010.85
2018-11-02T03:15:17.131Z,1010.94
2018-11-02T03:16:17.089Z,1010.86
2018-11-02T03:17:17.045Z,1010.91
2018-11-02T03:18:16.991Z,1010.94
2018-11-02T03:19:16.946Z,1010.96
2018-11-02T03:20:16.910Z,1010.98
2018-11-02T03:21:16.855Z,1010.97
2018-11-02T03:22:16.885Z,1011.01
2018-11-02T03:23:16.775Z,1010.94
2018-11-02T03:24:16.718Z,1010.92
2018-11-02T03:25:16.668Z,1011.00
2018-11-02T03:26:16.622Z,1010.98
2018-11-02T03:27:16.574Z,1011.02
2018-11-02T03:28:16.587Z,1010.97
2018-11-02T03:29:16.488Z,1011.05
2018-11-02T03:30:16.514Z,1011.04
2018-11-02T03:31:16.395Z,1011.10
2018-11-02T03:32:16.369Z,1011.06
2018-11-02T03:33:16.301Z,1011.12
2018-11-02T03:34:16.251Z,1011.19
2018-11-02T03:35:16.294Z,1011.20
2018-11-02T03:36:16.332Z,1011.23
2018-11-02T03:37:16.238Z,1011.17
2018-11-02T03:38:16.070Z,1011.23
2018-11-02T03:39:16.027Z,1011.19
2018-11-02T03:40:15.978Z,1011.24
2018-11-02T03:41:15.934Z,1011.27
2018-11-02T03:42:15.893Z,1011.30
2018-11-02T03:43:15.842Z,1011.24
2018-11-02T03:44:15.792Z,1011.22
2018-11-02T03:45:15.754Z,1011.31
2018-11-02T03:46:15.697Z,1011.29
2018-11-02T03:47:15.654Z,1011.33
2018-11-02T03:48:15.736Z,1011.41
2018-11-02T03:49:15.582Z,1011.35
2018-11-02T03:50:15.516Z,1011.39
2018-11-02T03:51:15.472Z,1011.42
2018-11-02T03:52:15.421Z,1011.50
2018-11-02T03:53:15.375Z,1011.50
2018-11-02T03:54:15.337Z,1011.57
2018-11-02T03:55:15.290Z,1011.56
2018-11-02T03:56:15.243Z,1011.57
2018-11-02T03:57:15.192Z,1011.55
2018-11-02T03:58:15.199Z,1011.61
2018-11-02T03:59:15.102Z,1011.63
2018-11-02T04:00:15.056Z,1011.68
2018-11-02T04:01:15.056Z,1011.71
2018-11-02T04:02:14.965Z,1011.79
2018-11-02T04:03:14.914Z,1011.67
2018-11-02T04:04:14.872Z,1011.76
2018-11-02T04:05:14.834Z,1011.78
2018-11-02T04:06:14.775Z,1011.84
2018-11-02T04:07:14.728Z,1011.87
2018-11-02T04:08:14.681Z,1011.91
2018-11-02T04:09:14.684Z,1011.95
2018-11-02T04:10:14.591Z,1011.93
2018-11-02T04:11:14.545Z,1011.95
2018-11-02T04:12:14.536Z,1011.98
2018-11-02T04:13:14.456Z,1011.95
2018-11-02T04:14:14.404Z,1011.98
2018-11-02T04:15:14.364Z,1011.97
2018-11-02T04:16:14.310Z,1011.97
2018-11-02T04:17:14.271Z,1012.02
2018-11-02T04:18:14.224Z,1011.99
2018-11-02T04:19:14.180Z,1011.98
2018-11-02T04:20:14.132Z,1011.97
2018-11-02T04:21:14.081Z,1012.03
2018-11-02T04:22:14.044Z,1012.05
2018-11-02T04:23:13.996Z,1012.03
2018-11-02T04:24:13.947Z,1012.11
2018-11-02T04:25:13.895Z,1012.11
2018-11-02T04:26:13.858Z,1012.13
2018-11-02T04:27:13.810Z,1012.15
2018-11-02T04:28:13.755Z,1012.17
2018-11-02T04:29:13.716Z,1012.17
2018-11-02T04:30:13.671Z,1012.18
2018-11-02T04:31:13.621Z,1012.18
2018-11-02T04:32:13.576Z,1012.19
2018-11-02T04:33:13.527Z,1012.22
2018-11-02T04:34:13.482Z,1012.23
2018-11-02T04:35:13.435Z,1012.30
2018-11-02T04:36:13.391Z,1012.31
2018-11-02T04:37:13.342Z,1012.35
2018-11-02T04:38:13.295Z,1012.35
2018-11-02T04:39:13.278Z,1012.41
2018-11-02T04:40:13.201Z,1012.42
2018-11-02T04:41:13.157Z,1012.43
2018-11-02T04:42:13.108Z,1012.53
2018-11-02T04:43:13.066Z,1012.50
2018-11-02T04:44:13.022Z,1012.51
2018-11-02T04:45:12.968Z,1012.54
2018-11-02T04:46:12.929Z,1012.60
2018-11-02T04:47:12.876Z,1012.62
2018-11-02T04:48:12.829Z,1012.68
2018-11-02T04:49:12.787Z,1012.73
2018-11-02T04:50:12.744Z,1012.73
2018-11-02T04:51:12.762Z,1012.78
2018-11-02T04:52:12.648Z,1012.81
2018-11-02T04:53:12.598Z,1012.86
2018-11-02T04:54:12.557Z,1012.94
2018-11-02T04:55:12.512Z,1013.01
2018-11-02T04:56:12.462Z,1013.04
2018-11-02T04:57:12.412Z,1013.09
2018-11-02T04:58:12.366Z,1013.10
2018-11-02T04:59:12.329Z,1013.08
2018-11-02T05:00:12.282Z,1013.11
2018-11-02T05:01:12.232Z,1013.13
2018-11-02T05:02:12.186Z,1013.12
2018-11-02T05:03:12.140Z,1013.15
2018-11-02T05:04:12.094Z,1013.16
2018-11-02T05:05:12.042Z,1013.19
2018-11-02T05:06:11.995Z,1013.22
2018-11-02T05:07:11.951Z,1013.26
2018-11-02T05:08:11.903Z,1013.31
2018-11-02T05:09:11.862Z,1013.24
2018-11-02T05:10:11.809Z,1013.26
2018-11-02T05:11:11.784Z,1013.34
2018-11-02T05:12:11.715Z,1013.30
2018-11-02T05:13:11.676Z,1013.27
2018-11-02T05:14:11.625Z,1013.30
2018-11-02T05:15:11.580Z,1013.34
2018-11-02T05:16:11.535Z,1013.33
2018-11-02T05:17:11.485Z,1013.35
2018-11-02T05:18:11.439Z,1013.39
2018-11-02T05:19:11.396Z,1013.41
2018-11-02T05:20:11.349Z,1013.43
2018-11-02T05:21:11.360Z,1013.44
2018-11-02T05:22:11.250Z,1013.49
2018-11-02T05:23:11.207Z,1013.49
2018-11-02T05:24:11.157Z,1013.50
2018-11-02T05:25:11.117Z,1013.54
2018-11-02T05:26:11.066Z,1013.51
2018-11-02T05:27:11.021Z,1013.56
2018-11-02T05:28:10.972Z,1013.59
2018-11-02T05:29:10.923Z,1013.63
2018-11-02T05:30:10.883Z,1013.64
2018-11-02T05:31:10.835Z,1013.67
2018-11-02T05:32:10.786Z,1013.68
2018-11-02T05:33:10.743Z,1013.73
2018-11-02T05:34:10.699Z,1013.71
2018-11-02T05:35:10.648Z,1013.73
2018-11-02T05:36:10.605Z,1013.70
2018-11-02T05:37:10.558Z,1013.77
2018-11-02T05:38:10.510Z,1013.80
2018-11-02T05:39:10.461Z,1013.82
2018-11-02T05:40:10.423Z,1013.89
2018-11-02T05:41:10.364Z,1013.80
2018-11-02T05:42:11.224Z,1013.89
2018-11-02T05:43:10.275Z,1013.88
2018-11-02T05:44:10.225Z,1013.90
2018-11-02T05:45:10.185Z,1013.93
2018-11-02T05:46:10.134Z,1013.99
2018-11-02T05:47:10.206Z,1014.02
2018-11-02T05:48:10.047Z,1014.06
2018-11-02T05:49:09.993Z,1014.01
2018-11-02T05:50:09.944Z,1014.10
2018-11-02T05:51:09.900Z,1014.10
2018-11-02T05:52:09.859Z,1014.12
2018-11-02T05:53:09.809Z,1014.12
2018-11-02T05:54:09.793Z,1014.11
2018-11-02T05:55:09.712Z,1014.17
2018-11-02T05:56:09.670Z,1014.21
2018-11-02T05:57:09.622Z,1014.21
2018-11-02T05:58:09.584Z,1014.26
2018-11-02T05:59:09.525Z,1014.29
2018-11-02T06:00:09.477Z,1014.30
2018-11-02T06:01:09.436Z,1014.38
2018-11-02T06:02:09.385Z,1014.39
2018-11-02T06:03:09.341Z,1014.38
2018-11-02T06:04:09.298Z,1014.46
2018-11-02T06:05:09.247Z,1014.44
2018-11-02T06:06:09.204Z,1014.50
2018-11-02T06:07:09.150Z,1014.49
2018-11-02T06:08:09.107Z,1014.48
2018-11-02T06:09:09.059Z,1014.46
2018-11-02T06:10:09.017Z,1014.48
2018-11-02T06:11:09.005Z,1014.50
2018-11-02T06:12:08.920Z,1014.58
2018-11-02T06:13:08.877Z,1014.54
2018-11-02T06:14:08.833Z,1014.57
2018-11-02T06:15:08.787Z,1014.60
2018-11-02T06:16:08.737Z,1014.61
2018-11-02T06:17:08.687Z,1014.59
2018-11-02T06:18:08.651Z,1014.68
2018-11-02T06:19:08.593Z,1014.64
2018-11-02T06:20:08.551Z,1014.67
2018-11-02T06:21:08.500Z,1014.68
2018-11-02T06:22:08.452Z,1014.71
2018-11-02T06:23:08.410Z,1014.78
2018-11-02T06:24:08.402Z,1014.74
2018-11-02T06:25:08.313Z,1014.79
2018-11-02T06:26:08.270Z,1014.78
2018-11-02T06:27:08.225Z,1014.84
2018-11-02T06:28:08.171Z,1014.87
2018-11-02T06:29:08.128Z,1014.93
2018-11-02T06:30:08.083Z,1014.90
2018-11-02T06:31:08.037Z,1014.89
2018-11-02T06:32:07.988Z,1014.87
2018-11-02T06:33:07.943Z,1014.94
2018-11-02T06:34:07.892Z,1014.92
2018-11-02T06:35:07.845Z,1014.97
2018-11-02T06:36:07.802Z,1015.02
2018-11-02T06:37:07.759Z,1015.04
2018-11-02T06:38:07.711Z,1015.06
2018-11-02T06:39:07.658Z,1015.09
2018-11-02T06:40:07.642Z,1015.11
2018-11-02T06:41:07.632Z,1015.16
2018-11-02T06:42:07.621Z,1015.16
2018-11-02T06:43:11.574Z,1015.17
2018-11-02T06:44:07.494Z,1015.22
2018-11-02T06:45:07.564Z,1015.30
2018-11-02T06:46:07.337Z,1015.32
2018-11-02T06:47:07.287Z,1015.33
2018-11-02T06:48:07.238Z,1015.38
2018-11-02T06:49:07.192Z,1015.35
2018-11-02T06:50:07.150Z,1015.37
2018-11-02T06:51:07.202Z,1015.41
2018-11-02T06:52:07.056Z,1015.44
2018-11-02T06:53:07.037Z,1015.48
2018-11-02T06:54:06.960Z,1015.48
2018-11-02T06:55:06.916Z,1015.50
2018-11-02T06:56:06.868Z,1015.51
2018-11-02T06:57:06.822Z,1015.51
2018-11-02T06:58:06.771Z,1015.58
2018-11-02T06:59:06.854Z,1015.56
2018-11-02T07:00:07.141Z,1015.62
2018-11-02T07:01:06.637Z,1015.60
2018-11-02T07:02:06.598Z,1015.61
2018-11-02T07:03:06.544Z,1015.67
2018-11-02T07:04:06.501Z,1015.70
2018-11-02T07:05:06.455Z,1015.75
2018-11-02T07:06:06.400Z,1015.81
2018-11-02T07:07:06.436Z,1015.77
2018-11-02T07:08:06.483Z,1015.81
2018-11-02T07:09:06.266Z,1015.86
2018-11-02T07:10:06.214Z,1015.87
2018-11-02T07:11:06.174Z,1015.85
2018-11-02T07:12:06.123Z,1015.89
2018-11-02T07:13:06.073Z,1015.91
2018-11-02T07:14:06.031Z,1015.92
2018-11-02T07:15:05.981Z,1015.98
2018-11-02T07:16:05.937Z,1015.98
2018-11-02T07:17:05.887Z,1016.04
2018-11-02T07:18:05.859Z,1016.04
2018-11-02T07:19:05.792Z,1016.10
2018-11-02T07:20:05.749Z,1016.10
2018-11-02T07:22:05.658Z,1016.19
2018-11-02T07:23:05.612Z,1016.24
2018-11-02T07:24:05.560Z,1016.21
2018-11-02T07:25:05.569Z,1016.23
2018-11-02T07:26:05.467Z,1016.24
2018-11-02T07:27:05.421Z,1016.28
2018-11-02T07:28:05.376Z,1016.29
2018-11-02T07:29:05.327Z,1016.30
2018-11-02T07:30:05.318Z,1016.29
2018-11-02T07:31:05.237Z,1016.30
2018-11-02T07:32:05.192Z,1016.36
2018-11-02T07:33:05.146Z,1016.25
2018-11-02T07:34:05.102Z,1016.32
2018-11-02T07:35:05.053Z,1016.35
2018-11-02T07:36:05.006Z,1016.36
2018-11-02T07:37:04.956Z,1016.39
2018-11-02T07:38:04.906Z,1016.40
2018-11-02T07:39:04.897Z,1016.42
2018-11-02T07:40:04.819Z,1016.42
2018-11-02T07:41:04.775Z,1016.46
2018-11-02T07:42:04.731Z,1016.45
2018-11-02T07:43:04.680Z,1016.48
2018-11-02T07:44:04.633Z,1016.50
2018-11-02T07:45:04.590Z,1016.50
2018-11-02T07:46:04.538Z,1016.50
2018-11-02T07:47:04.490Z,1016.54
2018-11-02T07:48:04.449Z,1016.54
2018-11-02T07:49:04.401Z,1016.56
2018-11-02T07:50:04.361Z,1016.62
2018-11-02T07:51:04.303Z,1016.62
2018-11-02T07:52:04.257Z,1016.63
2018-11-02T07:53:04.212Z,1016.65
2018-11-02T07:54:04.162Z,1016.69
2018-11-02T07:55:04.125Z,1016.71
2018-11-02T07:56:04.070Z,1016.68
2018-11-02T07:57:04.024Z,1016.66
2018-11-02T07:58:03.981Z,1016.68
2018-11-02T07:59:03.936Z,1016.71
2018-11-02T08:00:03.887Z,1016.68
2018-11-02T08:01:03.844Z,1016.70
2018-11-02T08:02:03.867Z,1016.76
2018-11-02T08:03:03.749Z,1016.79
2018-11-02T08:04:03.981Z,1016.81
2018-11-02T08:05:03.662Z,1016.81
2018-11-02T08:06:03.610Z,1016.77
2018-11-02T08:07:03.564Z,1016.84
2018-11-02T08:08:03.518Z,1016.83
2018-11-02T08:10:03.420Z,1016.84
2018-11-02T08:11:03.376Z,1016.86
2018-11-02T08:12:03.334Z,1016.87
2018-11-02T08:13:03.287Z,1016.89
2018-11-02T08:14:03.327Z,1016.88
2018-11-02T08:15:03.187Z,1016.84
2018-11-02T08:16:03.142Z,1016.83
2018-11-02T08:17:03.092Z,1016.87
2018-11-02T08:18:03.048Z,1016.89
2018-11-02T08:19:03.060Z,1016.91
2018-11-02T08:20:02.959Z,1016.93
2018-11-02T08:21:02.914Z,1016.94
2018-11-02T08:22:02.861Z,1016.96
2018-11-02T08:23:02.816Z,1016.99
2018-11-02T08:24:02.774Z,1017.00
2018-11-02T08:25:02.734Z,1016.99
2018-11-02T08:26:02.680Z,1016.97
2018-11-02T08:27:02.631Z,1017.04
2018-11-02T08:28:02.588Z,1017.00
2018-11-02T08:29:02.539Z,1017.06
2018-11-02T08:30:02.508Z,1017.04
2018-11-02T08:31:02.455Z,1017.02
2018-11-02T08:32:02.470Z,1017.03
2018-11-02T08:33:02.358Z,1017.08
2018-11-02T08:34:02.307Z,1017.11
2018-11-02T08:35:02.265Z,1017.09
2018-11-02T08:36:02.219Z,1017.11
2018-11-02T08:37:02.166Z,1017.18
2018-11-02T08:38:02.116Z,1017.18
2018-11-02T08:39:02.074Z,1017.21
2018-11-02T08:40:02.024Z,1017.19
2018-11-02T08:41:01.979Z,1017.24
2018-11-02T08:42:01.930Z,1017.27
2018-11-02T08:43:01.888Z,1017.22
2018-11-02T08:44:01.840Z,1017.27
2018-11-02T08:45:01.789Z,1017.28
2018-11-02T08:46:01.744Z,1017.28
2018-11-02T08:47:01.699Z,1017.30
2018-11-02T08:48:01.657Z,1017.32
2018-11-02T08:49:01.610Z,1017.31
2018-11-02T08:50:01.572Z,1017.35
2018-11-02T08:51:01.519Z,1017.37
2018-11-02T08:52:01.477Z,1017.39
2018-11-02T08:53:01.420Z,1017.37
2018-11-02T08:54:01.379Z,1017.38
2018-11-02T08:55:01.329Z,1017.42
2018-11-02T08:56:01.283Z,1017.39
2018-11-02T08:57:01.232Z,1017.37
2018-11-02T08:58:01.406Z,1017.40
2018-11-02T08:59:01.299Z,1017.47
2018-11-02T09:00:01.158Z,1017.46
2018-11-02T09:01:01.050Z,1017.44
2018-11-02T09:02:01.002Z,1017.50
2018-11-02T09:03:00.957Z,1017.45
2018-11-02T09:04:00.911Z,1017.44
2018-11-02T09:05:00.958Z,1017.47
2018-11-02T09:06:00.824Z,1017.46
2018-11-02T09:07:00.779Z,1017.41
2018-11-02T09:08:00.727Z,1017.42
2018-11-02T09:09:00.685Z,1017.45
2018-11-02T09:10:00.633Z,1017.46
2018-11-02T09:11:00.589Z,1017.47
2018-11-02T09:12:00.619Z,1017.44
2018-11-02T09:13:00.497Z,1017.46
2018-11-02T09:14:00.448Z,1017.50
2018-11-02T09:15:00.403Z,1017.54
2018-11-02T09:16:00.358Z,1017.51
2018-11-02T09:17:00.316Z,1017.57
2018-11-02T09:18:00.270Z,1017.44
2018-11-02T09:19:00.243Z,1017.58
2018-11-02T09:20:00.176Z,1017.60
2018-11-02T09:21:00.130Z,1017.63
2018-11-02T09:22:00.086Z,1017.61
2018-11-02T09:23:00.041Z,1017.59
2018-11-02T09:23:59.989Z,1017.68
2018-11-02T09:24:59.944Z,1017.71
2018-11-02T09:25:59.897Z,1017.69
2018-11-02T09:26:59.856Z,1017.77
2018-11-02T09:27:59.933Z,1017.75
2018-11-02T09:28:59.761Z,1017.76
2018-11-02T09:29:59.723Z,1017.79
2018-11-02T09:30:59.736Z,1017.79
2018-11-02T09:31:59.621Z,1017.80
2018-11-02T09:32:59.577Z,1017.77
2018-11-02T09:33:59.532Z,1017.78
2018-11-02T09:34:59.483Z,1017.79
2018-11-02T09:35:59.437Z,1017.80
2018-11-02T09:36:59.392Z,1017.82
2018-11-02T09:37:59.356Z,1017.86
2018-11-02T09:38:59.302Z,1017.86
2018-11-02T09:39:59.254Z,1017.92
2018-11-02T09:40:59.210Z,1017.91
2018-11-02T09:41:59.167Z,1017.93
2018-11-02T09:42:59.122Z,1017.98
2018-11-02T09:43:59.072Z,1017.95
2018-11-02T09:44:59.024Z,1018.01
2018-11-02T09:45:58.981Z,1018.01
2018-11-02T09:46:58.940Z,1018.05
2018-11-02T09:47:58.898Z,1018.05
2018-11-02T09:48:58.847Z,1018.10
2018-11-02T09:49:58.804Z,1018.08
2018-11-02T09:50:58.752Z,1018.12
2018-11-02T09:51:58.753Z,1018.14
2018-11-02T09:52:58.659Z,1018.16
2018-11-02T09:53:58.614Z,1018.14
2018-11-02T09:54:58.567Z,1018.16
2018-11-02T09:55:58.537Z,1018.23
2018-11-02T09:56:58.476Z,1018.24
2018-11-02T09:57:58.432Z,1018.28
2018-11-02T09:58:58.386Z,1018.31
2018-11-02T09:59:58.346Z,1018.31
2018-11-02T10:00:58.295Z,1018.28
2018-11-02T10:01:58.297Z,1018.29
2018-11-02T10:02:58.206Z,1018.31
2018-11-02T10:03:58.162Z,1018.34
2018-11-02T10:04:58.120Z,1018.29
2018-11-02T10:05:58.065Z,1018.32
2018-11-02T10:06:58.028Z,1018.29
2018-11-02T10:07:57.978Z,1018.36
2018-11-02T10:08:57.975Z,1018.36
2018-11-02T10:09:57.882Z,1018.40
2018-11-02T10:10:57.842Z,1018.41
2018-11-02T10:11:57.790Z,1018.44
2018-11-02T10:12:57.750Z,1018.40
2018-11-02T10:13:57.702Z,1018.50
2018-11-02T10:14:57.655Z,1018.47
2018-11-02T10:15:57.609Z,1018.50
2018-11-02T10:16:57.568Z,1018.48
2018-11-02T10:17:57.520Z,1018.49
2018-11-02T10:18:57.475Z,1018.55
2018-11-02T10:19:57.432Z,1018.59
2018-11-02T10:20:57.382Z,1018.60
2018-11-02T10:21:57.334Z,1018.57
2018-11-02T10:22:57.294Z,1018.58
2018-11-02T10:23:57.317Z,1018.59
2018-11-02T10:24:57.198Z,1018.52
2018-11-02T10:25:57.153Z,1018.54
2018-11-02T10:26:57.115Z,1018.59
2018-11-02T10:27:57.114Z,1018.58
2018-11-02T10:28:57.019Z,1018.57
2018-11-02T10:29:56.973Z,1018.55
2018-11-02T10:30:56.925Z,1018.61
2018-11-02T10:31:56.880Z,1018.62
2018-11-02T10:32:56.832Z,1018.59
2018-11-02T10:33:56.791Z,1018.60
2018-11-02T10:34:56.750Z,1018.62
2018-11-02T10:35:56.713Z,1018.64
2018-11-02T10:36:56.653Z,1018.60
2018-11-02T10:37:56.610Z,1018.57
2018-11-02T10:38:56.562Z,1018.64
2018-11-02T10:39:56.533Z,1018.64
2018-11-02T10:40:56.482Z,1018.62
2018-11-02T10:41:56.422Z,1018.64
2018-11-02T10:42:56.376Z,1018.67
2018-11-02T10:43:56.331Z,1018.59
2018-11-02T10:44:56.426Z,1018.68
2018-11-02T10:45:56.288Z,1018.64
2018-11-02T10:46:56.195Z,1018.71
2018-11-02T10:47:56.157Z,1018.70
2018-11-02T10:48:56.108Z,1018.72
2018-11-02T10:49:56.059Z,1018.74
2018-11-02T10:50:56.011Z,1018.73
2018-11-02T10:51:55.962Z,1018.78
2018-11-02T10:52:55.920Z,1018.76
2018-11-02T10:53:55.872Z,1018.74
2018-11-02T10:54:55.832Z,1018.74
2018-11-02T10:55:55.779Z,1018.79
2018-11-02T10:56:55.735Z,1018.75
2018-11-02T10:57:55.692Z,1018.83
2018-11-02T10:58:55.645Z,1018.80
2018-11-02T10:59:55.601Z,1018.80
2018-11-02T11:00:55.757Z,1018.82
2018-11-02T11:01:55.516Z,1018.82
2018-11-02T11:02:55.462Z,1018.81
2018-11-02T11:03:55.415Z,1018.80
2018-11-02T11:04:55.373Z,1018.87
2018-11-02T11:05:55.324Z,1018.86
2018-11-02T11:06:55.281Z,1018.88
2018-11-02T11:07:55.233Z,1018.92
2018-11-02T11:08:55.186Z,1018.95
2018-11-02T11:09:55.138Z,1018.98
2018-11-02T11:10:55.094Z,1018.95
2018-11-02T11:11:55.080Z,1019.01
2018-11-02T11:12:55.374Z,1018.99
2018-11-02T11:13:54.959Z,1018.98
2018-11-02T11:14:54.912Z,1019.00
2018-11-02T11:15:54.915Z,1019.01
2018-11-02T11:16:54.828Z,1018.99
2018-11-02T11:17:54.775Z,1018.98
2018-11-02T11:18:54.734Z,1018.97
2018-11-02T11:19:54.680Z,1018.93
2018-11-02T11:20:54.644Z,1018.98
2018-11-02T11:21:54.591Z,1018.97
2018-11-02T11:22:54.550Z,1019.04
2018-11-02T11:23:54.498Z,1018.94
2018-11-02T11:24:54.460Z,1019.00
2018-11-02T11:25:54.409Z,1019.03
2018-11-02T11:26:54.361Z,1019.00
2018-11-02T11:27:54.322Z,1019.01
2018-11-02T11:28:54.275Z,1018.96
2018-11-02T11:29:54.232Z,1019.01
2018-11-02T11:30:54.181Z,1018.95
2018-11-02T11:31:54.134Z,1018.97
2018-11-02T11:32:54.091Z,1018.98
2018-11-02T11:33:54.049Z,1019.00
2018-11-02T11:34:54.002Z,1019.07
2018-11-02T11:35:53.989Z,1019.08
2018-11-02T11:36:53.919Z,1019.08
2018-11-02T11:37:53.865Z,1019.13
2018-11-02T11:38:53.822Z,1019.16
2018-11-02T11:39:53.771Z,1019.16
2018-11-02T11:40:53.737Z,1019.17
2018-11-02T11:41:53.684Z,1019.18
2018-11-02T11:42:53.644Z,1019.17
2018-11-02T11:43:53.597Z,1019.16
2018-11-02T11:44:53.549Z,1019.15
2018-11-02T11:45:53.504Z,1019.13
2018-11-02T11:46:53.461Z,1019.14
2018-11-02T11:47:53.411Z,1019.18
2018-11-02T11:48:53.473Z,1019.14
2018-11-02T11:49:53.322Z,1019.15
2018-11-02T11:50:53.277Z,1019.17
2018-11-02T11:51:53.234Z,1019.20
2018-11-02T11:52:53.198Z,1019.12
2018-11-02T11:53:53.148Z,1019.16
2018-11-02T11:54:53.104Z,1019.16
2018-11-02T11:55:53.058Z,1019.16
2018-11-02T11:56:53.015Z,1019.14
2018-11-02T11:57:52.965Z,1019.19
2018-11-02T11:58:52.922Z,1019.20
2018-11-02T11:59:52.878Z,1019.18
2018-11-02T12:00:52.830Z,1019.19
2018-11-02T12:01:52.789Z,1019.20
2018-11-02T12:02:52.748Z,1019.19
2018-11-02T12:03:52.701Z,1019.18
2018-11-02T12:04:52.728Z,1019.20
2018-11-02T12:05:52.618Z,1019.22
2018-11-02T12:06:52.645Z,1019.22